createdAt,value
2016-08-26T00:00:04.900Z,73.18
2016-08-26T00:01:04.174Z,72.99
2016-08-26T00:02:04.874Z,73.08
2016-08-26T00:03:04.163Z,73.75
2016-08-26T00:04:04.861Z,73.95
2016-08-26T00:05:04.149Z,73.18
2016-08-26T00:06:04.141Z,73.37
2016-08-26T00:07:04.133Z,73.95
2016-08-26T00:08:04.838Z,73.95
2016-08-26T00:09:04.829Z,73.82
2016-08-26T00:10:04.117Z,73.33
2016-08-26T00:11:04.814Z,73.66
2016-08-26T00:12:04.098Z,73.53
2016-08-26T00:13:04.803Z,74.58
2016-08-26T00:14:04.086Z,74.4
2016-08-26T00:15:04.788Z,73.82
2016-08-26T00:16:04.074Z,75.36
2016-08-26T00:17:04.070Z,74.68
2016-08-26T00:18:04.065Z,74.91
2016-08-26T00:19:04.055Z,75.36
2016-08-26T00:20:04.058Z,74.72
2016-08-26T00:21:04.042Z,74.3
2016-08-26T00:22:04.034Z,74.2
2016-08-26T00:23:04.032Z,74.58
2016-08-26T00:24:04.031Z,74.49
2016-08-26T00:25:04.026Z,74.97
2016-08-26T00:26:04.722Z,75.26
2016-08-26T00:27:04.714Z,74.58
2016-08-26T00:28:04.000Z,74.78
2016-08-26T00:29:03.995Z,75.16
2016-08-26T00:30:03.988Z,75.26
2016-08-26T00:31:03.981Z,74.78
2016-08-26T00:32:03.971Z,76.03
2016-08-26T00:33:04.685Z,75.16
2016-08-26T00:34:04.672Z,75.55
2016-08-26T00:35:03.955Z,75.65
2016-08-26T00:36:03.950Z,75.93
2016-08-26T00:37:03.938Z,76.23
2016-08-26T00:38:03.936Z,76.23
2016-08-26T00:39:03.929Z,76.23
2016-08-26T00:40:03.926Z,76.61
2016-08-26T00:41:03.914Z,76.03
2016-08-26T00:42:03.910Z,76.23
2016-08-26T00:43:04.617Z,76.23
2016-08-26T00:44:03.895Z,76.13
2016-08-26T00:45:03.890Z,77
2016-08-26T00:46:03.891Z,77
2016-08-26T00:47:03.875Z,76.61
2016-08-26T00:48:03.870Z,77.09
2016-08-26T00:49:03.870Z,76.9
2016-08-26T00:50:03.861Z,77.28
2016-08-26T00:51:03.851Z,77
2016-08-26T00:52:03.846Z,77.28
2016-08-26T00:53:03.839Z,76.8
2016-08-26T00:54:03.835Z,76.8
2016-08-26T00:55:03.824Z,76.9
2016-08-26T00:56:03.819Z,77.48
2016-08-26T00:57:03.811Z,77.28
2016-08-26T00:58:03.806Z,77.58
2016-08-26T00:59:03.800Z,76.9
2016-08-26T01:00:04.506Z,77.06
2016-08-26T01:01:03.787Z,77.44
2016-08-26T01:02:03.783Z,77.19
2016-08-26T01:03:03.773Z,76.96
2016-08-26T01:04:03.769Z,77.34
2016-08-26T01:05:03.757Z,77.73
2016-08-26T01:06:03.756Z,77.06
2016-08-26T01:07:04.454Z,76.76
2016-08-26T01:08:03.746Z,76.67
2016-08-26T01:09:03.734Z,77.15
2016-08-26T01:10:03.726Z,76.96
2016-08-26T01:11:03.724Z,77.25
2016-08-26T01:12:03.711Z,77.53
2016-08-26T01:13:03.707Z,76.96
2016-08-26T01:14:03.702Z,77.25
2016-08-26T01:15:03.693Z,77.44
2016-08-26T01:16:03.687Z,77.44
2016-08-26T01:17:03.679Z,77.15
2016-08-26T01:18:03.675Z,77.15
2016-08-26T01:19:03.669Z,77.06
2016-08-26T01:20:03.658Z,77.15
2016-08-26T01:21:03.653Z,77.73
2016-08-26T01:22:03.649Z,77.92
2016-08-26T01:23:03.645Z,77.06
2016-08-26T01:24:04.342Z,77.34
2016-08-26T01:25:03.630Z,77.15
2016-08-26T01:26:03.626Z,77.34
2016-08-26T01:27:04.319Z,77.44
2016-08-26T01:28:03.605Z,77.44
2016-08-26T01:29:03.600Z,77.53
2016-08-26T01:30:03.591Z,77.25
2016-08-26T01:31:04.298Z,77.63
2016-08-26T01:32:03.582Z,77.63
2016-08-26T01:33:03.577Z,78.59
2016-08-26T01:34:03.576Z,78.11
2016-08-26T01:35:03.560Z,77.63
2016-08-26T01:36:04.258Z,77.25
2016-08-26T01:37:03.546Z,77.63
2016-08-26T01:38:03.539Z,78.02
2016-08-26T01:39:03.532Z,77.63
2016-08-26T01:40:03.526Z,77.63
2016-08-26T01:41:03.520Z,77.92
2016-08-26T01:42:03.513Z,79.08
2016-08-26T01:43:03.505Z,78.5
2016-08-26T01:44:03.496Z,77.63
2016-08-26T01:45:03.489Z,77.63
2016-08-26T01:46:03.492Z,77.73
2016-08-26T01:47:03.479Z,77.53
2016-08-26T01:48:03.475Z,77.83
2016-08-26T01:49:03.468Z,77.92
2016-08-26T01:50:03.457Z,77.63
2016-08-26T01:51:03.451Z,77.15
2016-08-26T01:52:03.446Z,76.96
2016-08-26T01:53:04.146Z,77.25
2016-08-26T01:54:03.434Z,78.02
2016-08-26T01:55:03.421Z,77.83
2016-08-26T01:56:03.422Z,77.83
2016-08-26T01:57:03.616Z,78.5
2016-08-26T01:58:03.404Z,77.92
2016-08-26T01:59:03.398Z,77.73
2016-08-26T02:00:03.390Z,77.83
2016-08-26T02:01:03.387Z,77.92
2016-08-26T02:02:03.378Z,77.44
2016-08-26T02:03:03.372Z,78.5
2016-08-26T02:04:03.364Z,77.63
2016-08-26T02:05:03.357Z,77.73
2016-08-26T02:06:03.366Z,77.83
2016-08-26T02:07:03.347Z,78.02
2016-08-26T02:08:03.339Z,77.53
2016-08-26T02:09:04.040Z,77.73
2016-08-26T02:10:04.030Z,77.83
2016-08-26T02:11:03.324Z,77.92
2016-08-26T02:12:04.020Z,77.83
2016-08-26T02:13:03.304Z,77.92
2016-08-26T02:14:04.010Z,77.63
2016-08-26T02:15:03.290Z,77.92
2016-08-26T02:16:03.281Z,77.59
2016-08-26T02:17:03.279Z,76.86
2016-08-26T02:18:03.270Z,77.25
2016-08-26T02:19:03.266Z,76.96
2016-08-26T02:20:03.253Z,76.96
2016-08-26T02:21:03.252Z,77.11
2016-08-26T02:22:03.247Z,77.31
2016-08-26T02:23:03.239Z,76.63
2016-08-26T02:24:03.230Z,77.06
2016-08-26T02:25:03.929Z,78.02
2016-08-26T02:26:03.975Z,77.73
2016-08-26T02:27:03.916Z,77.83
2016-08-26T02:28:03.911Z,77.92
2016-08-26T02:29:03.196Z,77.44
2016-08-26T02:30:03.186Z,77.4
2016-08-26T02:31:03.185Z,76.92
2016-08-26T02:32:03.175Z,77.11
2016-08-26T02:33:03.883Z,77.21
2016-08-26T02:34:03.165Z,76.92
2016-08-26T02:35:03.156Z,77.59
2016-08-26T02:36:03.148Z,77.69
2016-08-26T02:37:03.154Z,78.85
2016-08-26T02:38:03.156Z,78.46
2016-08-26T02:39:03.132Z,77.88
2016-08-26T02:40:03.168Z,77.69
2016-08-26T02:41:03.115Z,77.78
2016-08-26T02:42:03.161Z,77.78
2016-08-26T02:43:03.108Z,77.78
2016-08-26T02:44:03.102Z,77.88
2016-08-26T02:45:03.085Z,76.92
2016-08-26T02:46:03.079Z,77.4
2016-08-26T02:47:03.074Z,78.36
2016-08-26T02:48:03.067Z,77.59
2016-08-26T02:49:03.058Z,77.78
2016-08-26T02:50:03.052Z,77.88
2016-08-26T02:51:03.049Z,77.78
2016-08-26T02:52:03.040Z,77.21
2016-08-26T02:53:03.740Z,77.78
2016-08-26T02:54:03.028Z,78.27
2016-08-26T02:55:03.017Z,77.69
2016-08-26T02:56:03.010Z,77.69
2016-08-26T02:57:03.003Z,78.27
2016-08-26T02:58:02.999Z,77.78
2016-08-26T02:59:02.998Z,77.88
2016-08-26T03:00:02.986Z,77.69
2016-08-26T03:01:02.978Z,77.69
2016-08-26T03:02:02.969Z,77.98
2016-08-26T03:03:03.738Z,77.98
2016-08-26T03:04:02.958Z,78.36
2016-08-26T03:05:03.657Z,77.88
2016-08-26T03:06:02.941Z,79.23
2016-08-26T03:07:03.643Z,79.33
2016-08-26T03:08:02.924Z,78.94
2016-08-26T03:09:03.627Z,78.75
2016-08-26T03:10:02.914Z,78.94
2016-08-26T03:11:02.909Z,79.23
2016-08-26T03:12:02.899Z,79.03
2016-08-26T03:13:02.893Z,79.13
2016-08-26T03:14:02.885Z,78.94
2016-08-26T03:15:03.584Z,78.56
2016-08-26T03:16:02.887Z,79.43
2016-08-26T03:17:02.870Z,78.94
2016-08-26T03:18:03.564Z,78.75
2016-08-26T03:19:02.853Z,78.46
2016-08-26T03:20:02.844Z,79.23
2016-08-26T03:21:02.839Z,78.33
2016-08-26T03:22:02.831Z,77.21
2016-08-26T03:23:02.823Z,77.65
2016-08-26T03:24:02.818Z,78.36
2016-08-26T03:25:02.807Z,78.94
2016-08-26T03:26:02.800Z,78.61
2016-08-26T03:27:02.799Z,79.19
2016-08-26T03:28:02.789Z,80.35
2016-08-26T03:29:03.489Z,79.23
2016-08-26T03:30:02.777Z,78.36
2016-08-26T03:31:02.774Z,78.36
2016-08-26T03:32:02.760Z,78.27
2016-08-26T03:33:02.789Z,77.88
2016-08-26T03:34:02.751Z,78.36
2016-08-26T03:35:02.744Z,79.13
2016-08-26T03:36:02.734Z,78.94
2016-08-26T03:37:02.725Z,78.85
2016-08-26T03:38:02.718Z,79.13
2016-08-26T03:39:02.717Z,79.1
2016-08-26T03:40:02.702Z,78.81
2016-08-26T03:41:03.405Z,79.1
2016-08-26T03:42:02.693Z,78.81
2016-08-26T03:43:02.692Z,78.9
2016-08-26T03:44:02.675Z,79.48
2016-08-26T03:45:02.670Z,79.58
2016-08-26T03:46:02.665Z,79.81
2016-08-26T03:47:02.659Z,79.96
2016-08-26T03:48:02.647Z,79.86
2016-08-26T03:49:02.660Z,80.54
2016-08-26T03:50:02.641Z,80.54
2016-08-26T03:51:02.628Z,80.15
2016-08-26T03:52:02.619Z,80.73
2016-08-26T03:53:02.611Z,80.44
2016-08-26T03:54:02.606Z,80.06
2016-08-26T03:55:03.306Z,80.54
2016-08-26T03:56:02.593Z,80.73
2016-08-26T03:57:02.793Z,80.54
2016-08-26T03:58:02.575Z,80.44
2016-08-26T03:59:02.576Z,81.4
2016-08-26T04:00:03.273Z,80.83
2016-08-26T04:01:02.559Z,80.92
2016-08-26T04:02:02.549Z,80.83
2016-08-26T04:03:02.540Z,81.4
2016-08-26T04:04:02.549Z,80.15
2016-08-26T04:05:02.577Z,80.73
2016-08-26T04:06:02.528Z,80.83
2016-08-26T04:07:02.516Z,80.73
2016-08-26T04:08:02.507Z,80.73
2016-08-26T04:09:02.499Z,81.56
2016-08-26T04:10:03.396Z,81.79
2016-08-26T04:11:02.491Z,81.07
2016-08-26T04:12:02.484Z,81.37
2016-08-26T04:13:02.473Z,81.17
2016-08-26T04:14:03.175Z,81.46
2016-08-26T04:15:02.457Z,81.17
2016-08-26T04:16:02.451Z,81.27
2016-08-26T04:17:02.444Z,82.42
2016-08-26T04:18:02.434Z,81.56
2016-08-26T04:19:02.427Z,81.56
2016-08-26T04:20:02.419Z,81.17
2016-08-26T04:21:02.410Z,81.37
2016-08-26T04:22:02.406Z,81.37
2016-08-26T04:23:02.403Z,81.94
2016-08-26T04:24:02.392Z,81.94
2016-08-26T04:25:02.385Z,82.46
2016-08-26T04:26:02.375Z,82.61
2016-08-26T04:27:02.368Z,82.9
2016-08-26T04:28:03.067Z,82.61
2016-08-26T04:29:02.356Z,81.84
2016-08-26T04:30:02.351Z,82.81
2016-08-26T04:31:02.344Z,83
2016-08-26T04:32:03.048Z,83.09
2016-08-26T04:33:02.330Z,83.67
2016-08-26T04:34:02.319Z,82.52
2016-08-26T04:35:02.314Z,82.81
2016-08-26T04:36:02.303Z,83.09
2016-08-26T04:37:02.299Z,83.77
2016-08-26T04:38:02.288Z,83.67
2016-08-26T04:39:02.313Z,83.67
2016-08-26T04:40:02.295Z,83.96
2016-08-26T04:41:02.982Z,83.67
2016-08-26T04:42:02.265Z,83.67
2016-08-26T04:43:02.259Z,83.77
2016-08-26T04:44:02.248Z,83.96
2016-08-26T04:45:02.240Z,83.86
2016-08-26T04:46:02.942Z,84.06
2016-08-26T04:47:02.224Z,84.16
2016-08-26T04:48:02.224Z,84.34
2016-08-26T04:49:02.920Z,84.54
2016-08-26T04:50:02.206Z,84.44
2016-08-26T04:51:02.199Z,84.73
2016-08-26T04:52:02.192Z,84.73
2016-08-26T04:53:02.890Z,85.11
2016-08-26T04:54:02.176Z,85.02
2016-08-26T04:55:02.168Z,85.21
2016-08-26T04:56:02.170Z,85.11
2016-08-26T04:57:02.165Z,85.11
2016-08-26T04:58:02.150Z,85.11
2016-08-26T04:59:02.140Z,85.4
2016-08-26T05:00:02.131Z,85.69
2016-08-26T05:01:02.127Z,85.4
2016-08-26T05:02:02.117Z,85.78
2016-08-26T05:03:02.113Z,86.27
2016-08-26T05:04:02.815Z,85.5
2016-08-26T05:05:02.094Z,85.88
2016-08-26T05:06:02.091Z,85.21
2016-08-26T05:07:02.079Z,85.88
2016-08-26T05:08:02.073Z,85.88
2016-08-26T05:09:02.063Z,86.08
2016-08-26T05:10:02.057Z,86.08
2016-08-26T05:11:02.757Z,86.36
2016-08-26T05:12:02.042Z,86.18
2016-08-26T05:13:02.036Z,86.46
2016-08-26T05:14:02.031Z,86.36
2016-08-26T05:15:02.731Z,86.36
2016-08-26T05:16:02.723Z,86.46
2016-08-26T05:17:02.008Z,87.04
2016-08-26T05:18:01.999Z,87.04
2016-08-26T05:19:01.993Z,87.52
2016-08-26T05:20:01.982Z,87.81
2016-08-26T05:21:01.980Z,88.19
2016-08-26T05:22:01.968Z,88.39
2016-08-26T05:23:01.962Z,88.29
2016-08-26T05:24:01.958Z,88.19
2016-08-26T05:25:01.947Z,88
2016-08-26T05:26:01.942Z,88.39
2016-08-26T05:27:01.940Z,88.77
2016-08-26T05:28:01.925Z,88.19
2016-08-26T05:29:01.919Z,88.29
2016-08-26T05:30:01.911Z,88.48
2016-08-26T05:31:01.956Z,88.39
2016-08-26T05:32:01.899Z,88.1
2016-08-26T05:33:01.886Z,88.57
2016-08-26T05:34:01.882Z,88.29
2016-08-26T05:35:01.873Z,88.67
2016-08-26T05:36:01.865Z,88.71
2016-08-26T05:37:01.867Z,89.1
2016-08-26T05:38:01.854Z,88.81
2016-08-26T05:39:01.842Z,89.2
2016-08-26T05:40:02.547Z,89.29
2016-08-26T05:41:01.838Z,89.39
2016-08-26T05:42:01.825Z,89.01
2016-08-26T05:43:01.815Z,88.81
2016-08-26T05:44:01.812Z,88.81
2016-08-26T05:45:01.803Z,89.1
2016-08-26T05:46:02.503Z,89.39
2016-08-26T05:47:01.788Z,88.91
2016-08-26T05:48:01.783Z,89.1
2016-08-26T05:49:01.773Z,89.1
2016-08-26T05:50:01.783Z,89.2
2016-08-26T05:51:01.771Z,89.39
2016-08-26T05:52:01.750Z,89.39
2016-08-26T05:53:01.742Z,89.39
2016-08-26T05:54:01.741Z,89.58
2016-08-26T05:55:01.730Z,89.2
2016-08-26T05:56:01.720Z,88.71
2016-08-26T05:57:01.926Z,89.43
2016-08-26T05:58:01.710Z,89.24
2016-08-26T05:59:01.704Z,89.24
2016-08-26T06:00:01.703Z,89.15
2016-08-26T06:01:01.688Z,89.24
2016-08-26T06:02:02.391Z,88.67
2016-08-26T06:03:01.676Z,88.85
2016-08-26T06:04:01.669Z,88.95
2016-08-26T06:05:01.685Z,89.92
2016-08-26T06:06:02.379Z,89.34
2016-08-26T06:07:01.648Z,88.61
2016-08-26T06:08:01.645Z,88.13
2016-08-26T06:09:02.338Z,87.32
2016-08-26T06:10:02.335Z,88.04
2016-08-26T06:11:01.617Z,88.04
2016-08-26T06:12:02.317Z,86.3
2016-08-26T06:13:02.316Z,86.3
2016-08-26T06:14:02.310Z,86.01
2016-08-26T06:15:01.588Z,84.47
2016-08-26T06:16:01.585Z,84.22
2016-08-26T06:17:01.577Z,83.26
2016-08-26T06:18:01.573Z,82.97
2016-08-26T06:19:01.570Z,82.68
2016-08-26T06:20:01.563Z,82.59
2016-08-26T06:21:01.558Z,82.87
2016-08-26T06:22:02.251Z,82.2
2016-08-26T06:23:02.247Z,82.49
2016-08-26T06:24:01.533Z,83.26
2016-08-26T06:25:01.526Z,83.07
2016-08-26T06:26:01.516Z,82.1
2016-08-26T06:27:01.515Z,82.53
2016-08-26T06:28:01.514Z,82.05
2016-08-26T06:29:02.205Z,81.27
2016-08-26T06:30:02.203Z,81.37
2016-08-26T06:31:01.488Z,80.51
2016-08-26T06:32:01.478Z,79.64
2016-08-26T06:33:01.472Z,79.93
2016-08-26T06:34:01.463Z,78.61
2016-08-26T06:35:01.545Z,78.42
2016-08-26T06:36:01.453Z,78.42
2016-08-26T06:37:02.155Z,76.59
2016-08-26T06:38:01.441Z,76.98
2016-08-26T06:39:02.140Z,77.5
2016-08-26T06:40:01.431Z,77.5
2016-08-26T06:41:01.423Z,76.05
2016-08-26T06:42:01.420Z,75.57
2016-08-26T06:43:01.419Z,75.57
2016-08-26T06:44:01.404Z,75.95
2016-08-26T06:45:01.398Z,76.09
2016-08-26T06:46:01.394Z,75.7
2016-08-26T06:47:01.392Z,75.89
2016-08-26T06:48:01.434Z,75.7
2016-08-26T06:49:02.078Z,75.6
2016-08-26T06:50:01.376Z,75.02
2016-08-26T06:51:01.355Z,75.79
2016-08-26T06:52:02.061Z,75.16
2016-08-26T06:53:01.346Z,74.1
2016-08-26T06:54:01.389Z,75.06
2016-08-26T06:55:01.333Z,74.68
2016-08-26T06:56:02.043Z,74.38
2016-08-26T06:57:01.321Z,74.48
2016-08-26T06:58:01.321Z,73.74
2016-08-26T06:59:01.310Z,73.94
2016-08-26T07:00:01.315Z,73.07
2016-08-26T07:01:01.297Z,73.07
2016-08-26T07:02:02.015Z,73.39
2016-08-26T07:03:01.288Z,73.2
2016-08-26T07:04:01.293Z,73.01
2016-08-26T07:05:01.282Z,73.59
2016-08-26T07:06:01.295Z,73.1
2016-08-26T07:07:01.986Z,72.62
2016-08-26T07:08:01.257Z,72.08
2016-08-26T07:09:01.250Z,71.5
2016-08-26T07:10:01.251Z,70.92
2016-08-26T07:11:01.242Z,70.43
2016-08-26T07:12:02.001Z,69.66
2016-08-26T07:13:01.237Z,70.34
2016-08-26T07:14:01.239Z,66.69
2016-08-26T07:15:01.219Z,66.98
2016-08-26T07:16:01.238Z,66.63
2016-08-26T07:17:01.207Z,66.14
2016-08-26T07:18:01.206Z,66.14
2016-08-26T07:19:01.197Z,66.53
2016-08-26T07:20:01.206Z,65.56
2016-08-26T07:21:01.185Z,65.5
2016-08-26T07:22:01.904Z,65.98
2016-08-26T07:23:01.180Z,65.37
2016-08-26T07:24:01.873Z,64.24
2016-08-26T07:25:01.163Z,65.3
2016-08-26T07:26:01.166Z,64.95
2016-08-26T07:27:01.149Z,64.85
2016-08-26T07:28:01.165Z,65.34
2016-08-26T07:29:01.140Z,64.95
2016-08-26T07:30:01.134Z,64.75
2016-08-26T07:31:01.132Z,64.65
2016-08-26T07:32:01.122Z,64.56
2016-08-26T07:33:01.123Z,63.78
2016-08-26T07:34:01.114Z,63.69
2016-08-26T07:35:01.111Z,63.13
2016-08-26T07:36:01.110Z,62.16
2016-08-26T07:37:01.097Z,62.07
2016-08-26T07:38:01.093Z,62.95
2016-08-26T07:39:01.085Z,62.01
2016-08-26T07:40:01.081Z,63.07
2016-08-26T07:41:01.077Z,62.39
2016-08-26T07:42:01.073Z,62.39
2016-08-26T07:43:01.069Z,61.32
2016-08-26T07:44:01.062Z,62.59
2016-08-26T07:45:01.060Z,61.61
2016-08-26T07:46:01.050Z,61.61
2016-08-26T07:47:01.046Z,60.45
2016-08-26T07:48:01.750Z,60.38
2016-08-26T07:49:01.034Z,61.25
2016-08-26T07:50:01.034Z,60
2016-08-26T07:51:01.024Z,59.7
2016-08-26T07:52:01.024Z,58.64
2016-08-26T07:53:01.018Z,59.64
2016-08-26T07:54:01.716Z,60.8
2016-08-26T07:55:01.007Z,59.92
2016-08-26T07:56:01.003Z,58.67
2016-08-26T07:57:01.945Z,58.67
2016-08-26T07:58:01.020Z,58.67
2016-08-26T07:59:00.993Z,58.95
2016-08-26T08:00:00.979Z,59.64
2016-08-26T08:01:00.980Z,59.86
2016-08-26T08:02:00.972Z,58.67
2016-08-26T08:03:01.013Z,58.69
2016-08-26T08:04:00.960Z,59.67
2016-08-26T08:05:01.006Z,59.08
2016-08-26T08:06:00.949Z,58.69
2016-08-26T08:07:01.658Z,59.18
2016-08-26T08:08:00.942Z,58.69
2016-08-26T08:09:00.936Z,58.59
2016-08-26T08:10:00.932Z,57.62
2016-08-26T08:11:00.929Z,58.11
2016-08-26T08:12:00.924Z,57.07
2016-08-26T08:13:00.918Z,57.07
2016-08-26T08:14:00.930Z,57.36
2016-08-26T08:15:00.913Z,56.59
2016-08-26T08:16:00.906Z,56.9
2016-08-26T08:17:00.897Z,56.61
2016-08-26T08:18:00.894Z,55.54
2016-08-26T08:19:01.599Z,54.79
2016-08-26T08:20:00.887Z,55.5
2016-08-26T08:21:00.887Z,54.13
2016-08-26T08:22:01.585Z,54.82
2016-08-26T08:23:00.874Z,54.13
2016-08-26T08:24:00.870Z,55.3
2016-08-26T08:25:00.870Z,55.4
2016-08-26T08:26:00.859Z,54.91
2016-08-26T08:27:00.863Z,54.82
2016-08-26T08:28:00.854Z,54.23
2016-08-26T08:29:00.852Z,53.67
2016-08-26T08:30:00.847Z,54.19
2016-08-26T08:31:01.562Z,52.17
2016-08-26T08:32:01.544Z,51.41
2016-08-26T08:33:00.835Z,49.68
2016-08-26T08:34:00.831Z,48.75
2016-08-26T08:35:00.825Z,48.58
2016-08-26T08:36:00.821Z,47.8
2016-08-26T08:37:00.823Z,47.89
2016-08-26T08:38:00.816Z,49.07
2016-08-26T08:39:00.813Z,47.99
2016-08-26T08:40:00.809Z,48.85
2016-08-26T08:41:00.805Z,49.82
2016-08-26T08:42:00.802Z,50
2016-08-26T08:43:00.850Z,49.12
2016-08-26T08:44:00.798Z,49.14
2016-08-26T08:45:01.509Z,48.63
2016-08-26T08:46:00.792Z,49.22
2016-08-26T08:47:01.494Z,49.88
2016-08-26T08:48:01.506Z,50.46
2016-08-26T08:49:00.780Z,51.41
2016-08-26T08:50:00.777Z,51.61
2016-08-26T08:51:00.778Z,51.41
2016-08-26T08:52:00.772Z,51.51
2016-08-26T08:53:00.767Z,50.82
2016-08-26T08:54:00.775Z,52.17
2016-08-26T08:55:00.759Z,52.85
2016-08-26T08:56:00.760Z,52.36
2016-08-26T08:57:01.467Z,53.24
2016-08-26T08:58:00.748Z,52.17
2016-08-26T08:59:00.746Z,52.46
2016-08-26T09:00:00.747Z,53.02
2016-08-26T09:01:00.736Z,53.11
2016-08-26T09:02:00.741Z,53.41
2016-08-26T09:03:00.734Z,53.7
2016-08-26T09:04:00.733Z,53.99
2016-08-26T09:05:00.728Z,54.68
2016-08-26T09:06:00.720Z,54.68
2016-08-26T09:07:00.717Z,54.58
2016-08-26T09:08:00.715Z,54.58
2016-08-26T09:09:00.709Z,53.53
2016-08-26T09:10:00.704Z,51.97
2016-08-26T09:11:00.703Z,53.05
2016-08-26T09:12:00.698Z,53.07
2016-08-26T09:13:00.695Z,52.58
2016-08-26T09:14:00.696Z,52.97
2016-08-26T09:15:00.690Z,52
2016-08-26T09:16:00.684Z,51.61
2016-08-26T09:17:00.683Z,53.17
2016-08-26T09:18:00.680Z,52.36
2016-08-26T09:19:00.674Z,52.75
2016-08-26T09:20:00.676Z,53.34
2016-08-26T09:21:00.672Z,52.95
2016-08-26T09:22:00.666Z,52.75
2016-08-26T09:23:00.663Z,52.56
2016-08-26T09:24:00.659Z,53.92
2016-08-26T09:25:00.654Z,52.95
2016-08-26T09:26:00.653Z,51.41
2016-08-26T09:27:00.646Z,51.07
2016-08-26T09:28:00.644Z,50.98
2016-08-26T09:29:00.643Z,50.51
2016-08-26T09:30:00.638Z,51.27
2016-08-26T09:31:00.634Z,50.29
2016-08-26T09:32:00.639Z,50.22
2016-08-26T09:33:00.624Z,50.88
2016-08-26T09:34:00.620Z,51.82
2016-08-26T09:35:00.620Z,52.51
2016-08-26T09:36:00.664Z,51.34
2016-08-26T09:37:00.612Z,51.24
2016-08-26T09:38:00.609Z,51.34
2016-08-26T09:39:00.606Z,51.14
2016-08-26T09:40:00.600Z,51.63
2016-08-26T09:41:01.306Z,51.7
2016-08-26T09:42:00.602Z,51.7
2016-08-26T09:43:00.589Z,51.21
2016-08-26T09:44:00.584Z,52.29
2016-08-26T09:45:00.582Z,52.39
2016-08-26T09:46:00.578Z,52.68
2016-08-26T09:47:00.597Z,53.46
2016-08-26T09:48:00.569Z,53.36
2016-08-26T09:49:00.566Z,52.39
2016-08-26T09:50:00.563Z,53.46
2016-08-26T09:51:00.558Z,53.46
2016-08-26T09:52:00.560Z,52.19
2016-08-26T09:53:00.552Z,52.19
2016-08-26T09:54:01.281Z,53.39
2016-08-26T09:55:00.544Z,52.41
2016-08-26T09:56:00.546Z,52.31
2016-08-26T09:57:00.539Z,53.39
2016-08-26T09:58:01.246Z,53.36
2016-08-26T09:59:00.535Z,54.24
2016-08-26T10:00:00.539Z,52.58
2016-08-26T10:01:00.529Z,52.48
2016-08-26T10:02:00.522Z,53.27
2016-08-26T10:03:00.520Z,53.85
2016-08-26T10:04:00.514Z,53.27
2016-08-26T10:05:00.509Z,53.36
2016-08-26T10:06:00.509Z,54.63
2016-08-26T10:07:01.211Z,54.53
2016-08-26T10:08:00.503Z,52.68
2016-08-26T10:09:00.499Z,53.27
2016-08-26T10:10:00.495Z,52.02
2016-08-26T10:11:00.487Z,52.31
2016-08-26T10:12:00.486Z,51.73
2016-08-26T10:13:00.486Z,52.02
2016-08-26T10:14:00.479Z,52.41
2016-08-26T10:15:00.477Z,51.24
2016-08-26T10:16:00.472Z,51.43
2016-08-26T10:17:00.467Z,51.56
2016-08-26T10:18:00.465Z,51.14
2016-08-26T10:19:00.462Z,51.43
2016-08-26T10:20:01.191Z,51.53
2016-08-26T10:21:01.169Z,51.53
2016-08-26T10:22:00.451Z,51.66
2016-08-26T10:23:01.154Z,51.66
2016-08-26T10:24:00.446Z,51.37
2016-08-26T10:25:01.210Z,50.71
2016-08-26T10:26:00.440Z,51
2016-08-26T10:27:00.437Z,50.9
2016-08-26T10:28:00.437Z,51.37
2016-08-26T10:29:00.429Z,50.81
2016-08-26T10:30:01.134Z,50.32
2016-08-26T10:31:00.436Z,49.92
2016-08-26T10:32:00.418Z,50.42
2016-08-26T10:33:00.417Z,51.49
2016-08-26T10:34:00.411Z,50.22
2016-08-26T10:35:00.406Z,51.39
2016-08-26T10:36:00.420Z,51.39
2016-08-26T10:37:00.400Z,51.29
2016-08-26T10:38:00.399Z,49.75
2016-08-26T10:39:00.448Z,49.85
2016-08-26T10:40:00.402Z,50.24
2016-08-26T10:41:00.393Z,48.21
2016-08-26T10:42:01.097Z,48.04
2016-08-26T10:43:00.382Z,48.72
2016-08-26T10:44:00.380Z,47.75
2016-08-26T10:45:00.379Z,48.72
2016-08-26T10:46:00.379Z,48.43
2016-08-26T10:47:00.372Z,49.11
2016-08-26T10:48:00.373Z,49.02
2016-08-26T10:49:00.368Z,48.5
2016-08-26T10:50:00.366Z,48.5
2016-08-26T10:51:00.361Z,49.38
2016-08-26T10:52:00.370Z,49.26
2016-08-26T10:53:00.358Z,48.87
2016-08-26T10:54:00.354Z,49.85
2016-08-26T10:55:00.351Z,50.27
2016-08-26T10:56:00.350Z,51.25
2016-08-26T10:57:00.347Z,49.97
2016-08-26T10:58:00.346Z,50.85
2016-08-26T10:59:00.343Z,50.17
2016-08-26T11:00:00.340Z,50.37
2016-08-26T11:01:00.336Z,49.48
2016-08-26T11:02:00.337Z,49.09
2016-08-26T11:03:00.334Z,47.65
2016-08-26T11:04:00.333Z,48.65
2016-08-26T11:05:00.358Z,46.79
2016-08-26T11:06:00.330Z,47.5
2016-08-26T11:07:00.331Z,47.2
2016-08-26T11:08:00.328Z,46.62
2016-08-26T11:09:00.326Z,47.2
2016-08-26T11:10:00.322Z,47.4
2016-08-26T11:11:00.321Z,48.38
2016-08-26T11:12:00.320Z,45.86
2016-08-26T11:13:00.322Z,46.37
2016-08-26T11:14:00.322Z,44.02
2016-08-26T11:15:00.319Z,43.18
2016-08-26T11:16:00.348Z,42.8
2016-08-26T11:17:01.036Z,42.72
2016-08-26T11:18:00.330Z,42.75
2016-08-26T11:19:00.327Z,42.25
2016-08-26T11:20:00.335Z,42.59
2016-08-26T11:21:00.330Z,39.66
2016-08-26T11:22:00.333Z,41.43
2016-08-26T11:23:01.043Z,40.64
2016-08-26T11:24:00.338Z,40.56
2016-08-26T11:25:00.340Z,39.79
2016-08-26T11:26:00.343Z,39.6
2016-08-26T11:27:00.347Z,39.23
2016-08-26T11:28:00.354Z,38.43
2016-08-26T11:29:01.069Z,38.64
2016-08-26T11:30:01.068Z,38.43
2016-08-26T11:31:00.364Z,38.85
2016-08-26T11:32:00.367Z,40.03
2016-08-26T11:33:00.370Z,37.29
2016-08-26T11:34:00.375Z,37.49
2016-08-26T11:35:00.379Z,38.69
2016-08-26T11:36:01.093Z,37.51
2016-08-26T11:37:01.110Z,40.29
2016-08-26T11:38:00.395Z,38.21
2016-08-26T11:39:01.103Z,36.04
2016-08-26T11:40:00.415Z,37.62
2016-08-26T11:41:00.408Z,37.52
2016-08-26T11:42:00.411Z,36.06
2016-08-26T11:43:00.413Z,36.14
2016-08-26T11:44:00.420Z,36.65
2016-08-26T11:45:00.428Z,37.05
2016-08-26T11:46:00.431Z,36.47
2016-08-26T11:47:00.438Z,35.49
2016-08-26T11:48:00.441Z,35
2016-08-26T11:49:00.446Z,35
2016-08-26T11:50:00.457Z,35.02
2016-08-26T11:51:00.458Z,35.73
2016-08-26T11:52:00.465Z,32.86
2016-08-26T11:53:00.486Z,32.76
2016-08-26T11:54:00.476Z,32.86
2016-08-26T11:55:00.481Z,32.17
2016-08-26T11:56:00.496Z,32.76
2016-08-26T11:57:00.497Z,34.64
2016-08-26T11:58:00.502Z,31.71
2016-08-26T11:59:01.222Z,33.49
2016-08-26T12:00:00.517Z,33.19
2016-08-26T12:01:00.523Z,32.02
2016-08-26T12:02:00.530Z,31.74
2016-08-26T12:03:00.536Z,32.14
2016-08-26T12:04:00.540Z,31.45
2016-08-26T12:05:00.550Z,29.88
2016-08-26T12:06:00.558Z,31.47
2016-08-26T12:07:00.574Z,29.68
2016-08-26T12:08:00.569Z,30.77
2016-08-26T12:09:00.583Z,30.19
2016-08-26T12:10:00.583Z,30.09
2016-08-26T12:11:00.590Z,27.62
2016-08-26T12:12:00.598Z,29.51
2016-08-26T12:13:00.615Z,29.43
2016-08-26T12:14:00.613Z,30.12
2016-08-26T12:15:00.618Z,28.25
2016-08-26T12:16:01.349Z,27.95
2016-08-26T12:17:01.345Z,28.34
2016-08-26T12:18:00.658Z,27.35
2016-08-26T12:19:00.658Z,26.86
2016-08-26T12:20:00.658Z,27.45
2016-08-26T12:21:00.670Z,28.15
2016-08-26T12:22:00.676Z,26.47
2016-08-26T12:23:00.682Z,27.36
2016-08-26T12:24:00.689Z,26.07
2016-08-26T12:25:01.415Z,27.78
2016-08-26T12:26:00.708Z,27.78
2016-08-26T12:27:01.427Z,26.58
2016-08-26T12:28:00.724Z,27.47
2016-08-26T12:29:00.741Z,27.47
2016-08-26T12:30:00.756Z,28.05
2016-08-26T12:31:01.452Z,28.43
2016-08-26T12:32:00.759Z,27.94
2016-08-26T12:33:00.769Z,27.35
2016-08-26T12:34:00.770Z,28.34
2016-08-26T12:35:01.498Z,29.14
2016-08-26T12:36:00.806Z,27.96
2016-08-26T12:37:00.793Z,28.87
2016-08-26T12:38:01.520Z,27.86
2016-08-26T12:39:00.815Z,29.46
2016-08-26T12:40:00.839Z,29.24
2016-08-26T12:41:00.822Z,30.43
2016-08-26T12:42:00.830Z,27.95
2016-08-26T12:43:00.849Z,27.35
2016-08-26T12:44:00.846Z,26.57
2016-08-26T12:45:00.856Z,26.26
2016-08-26T12:46:00.861Z,27.44
2016-08-26T12:47:00.871Z,28.13
2016-08-26T12:48:00.875Z,29.24
2016-08-26T12:49:00.888Z,29.04
2016-08-26T12:50:00.893Z,29.84
2016-08-26T12:51:00.901Z,28.56
2016-08-26T12:52:00.908Z,28.57
2016-08-26T12:53:00.915Z,28.27
2016-08-26T12:54:00.923Z,28.97
2016-08-26T12:55:00.934Z,29.07